createdAt,value
2018-12-24T00:02:01.532Z,96641.06
2018-12-24T00:04:31.680Z,96635.20
2018-12-24T00:07:02.180Z,96634.07
2018-12-24T00:09:32.315Z,96628.55
2018-12-24T00:12:07.086Z,96645.51
2018-12-24T00:14:34.338Z,96645.95
2018-12-24T00:17:04.523Z,96645.55
2018-12-24T00:19:35.758Z,96643.48
2018-12-24T00:22:05.922Z,96655.50
2018-12-24T00:24:36.169Z,96645.42
2018-12-24T00:27:06.354Z,96652.14
2018-12-24T00:29:36.736Z,96659.03
2018-12-24T00:32:07.296Z,96665.70
2018-12-24T00:34:37.460Z,96660.58
2018-12-24T00:37:07.840Z,96657.78
2018-12-24T00:39:37.973Z,96672.22
2018-12-24T00:42:15.618Z,96679.79
2018-12-24T00:44:40.751Z,96677.77
2018-12-24T00:47:10.903Z,96678.50
2018-12-24T00:49:41.060Z,96671.39
2018-12-24T00:52:11.265Z,96697.80
2018-12-24T00:54:41.409Z,96694.63
2018-12-24T00:57:11.533Z,96699.09
2018-12-24T00:59:41.687Z,96717.14
2018-12-24T01:02:11.803Z,96710.89
2018-12-24T01:04:42.213Z,96713.70
2018-12-24T01:07:12.622Z,96710.88
2018-12-24T01:09:43.738Z,96727.27
2018-12-24T01:12:13.911Z,96720.89
2018-12-24T01:14:44.341Z,96730.34
2018-12-24T01:17:14.482Z,96743.67
2018-12-24T01:19:44.620Z,96743.79
2018-12-24T01:22:14.806Z,96728.17
2018-12-24T01:24:44.963Z,96723.16
2018-12-24T01:27:15.201Z,96734.78
2018-12-24T01:29:45.370Z,96742.84
2018-12-24T01:32:15.611Z,96744.02
2018-12-24T01:34:45.981Z,96750.98
2018-12-24T01:37:16.168Z,96742.48
2018-12-24T01:39:46.538Z,96741.09
2018-12-24T01:42:16.743Z,96745.52
2018-12-24T01:44:46.810Z,96761.31
2018-12-24T01:47:17.004Z,96754.48
2018-12-24T01:49:47.283Z,96770.13
2018-12-24T01:52:17.710Z,96766.06
2018-12-24T01:54:47.863Z,96761.61
2018-12-24T01:57:18.626Z,96756.67
2018-12-24T01:59:48.871Z,96772.56
2018-12-24T02:02:19.108Z,96770.91
2018-12-24T02:04:49.564Z,96770.67
2018-12-24T02:07:19.755Z,96778.24
2018-12-24T02:09:49.878Z,96788.08
2018-12-24T02:12:20.131Z,96791.61
2018-12-24T02:14:50.262Z,96780.59
2018-12-24T02:17:20.668Z,96789.51
2018-12-24T02:19:50.809Z,96799.69
2018-12-24T02:22:21.003Z,96810.38
2018-12-24T02:24:51.131Z,96814.17
2018-12-24T02:27:21.246Z,96817.78
2018-12-24T02:29:51.520Z,96824.84
2018-12-24T02:32:21.675Z,96826.70
2018-12-24T02:34:51.793Z,96828.71
2018-12-24T02:37:21.901Z,96826.94
2018-12-24T02:39:52.055Z,96838.67
2018-12-24T02:42:22.438Z,96845.34
2018-12-24T02:44:52.558Z,96857.47
2018-12-24T02:47:22.722Z,96864.08
2018-12-24T02:49:52.840Z,96869.04
2018-12-24T02:52:23.068Z,96876.05
2018-12-24T02:54:53.269Z,96879.69
2018-12-24T02:57:23.422Z,96880.05
2018-12-24T02:59:53.540Z,96884.26
2018-12-24T03:02:23.650Z,96888.34
2018-12-24T03:04:53.797Z,96884.71
2018-12-24T03:07:24.265Z,96886.30
2018-12-24T03:09:54.386Z,96883.27
2018-12-24T03:12:24.543Z,96878.23
2018-12-24T03:14:54.722Z,96884.06
2018-12-24T03:17:24.844Z,96882.89
2018-12-24T03:19:54.971Z,96894.48
2018-12-24T03:22:25.077Z,96906.31
2018-12-24T03:24:55.228Z,96913.33
2018-12-24T03:27:25.380Z,96919.06
2018-12-24T03:29:55.516Z,96909.84
2018-12-24T03:32:25.840Z,96907.73
2018-12-24T03:34:56.102Z,96923.46
2018-12-24T03:37:26.201Z,96928.42
2018-12-24T03:39:56.426Z,96941.48
2018-12-24T03:42:26.539Z,96938.69
2018-12-24T03:44:56.794Z,96925.64
2018-12-24T03:47:26.979Z,96929.63
2018-12-24T03:49:57.101Z,96924.75
2018-12-24T03:52:27.528Z,96909.48
2018-12-24T03:54:57.651Z,96923.58
2018-12-24T03:57:27.790Z,96932.52
2018-12-24T03:59:57.933Z,96934.14
2018-12-24T04:02:29.160Z,96942.83
2018-12-24T04:04:59.275Z,96938.48
2018-12-24T04:07:29.418Z,96939.27
2018-12-24T04:10:00.489Z,96943.89
2018-12-24T04:12:30.685Z,96947.98
2018-12-24T04:15:00.819Z,96957.67
2018-12-24T04:17:31.247Z,96960.31
2018-12-24T04:20:01.425Z,96967.30
2018-12-24T04:22:31.585Z,96986.03
2018-12-24T04:25:01.719Z,96994.70
2018-12-24T04:27:41.419Z,97006.97
2018-12-24T04:30:03.801Z,97010.97
2018-12-24T04:32:34.023Z,97020.31
2018-12-24T04:35:04.188Z,97016.05
2018-12-24T04:37:34.602Z,97020.27
2018-12-24T04:40:04.693Z,97028.04
2018-12-24T04:42:35.098Z,97037.06
2018-12-24T04:45:05.249Z,97045.23
2018-12-24T04:47:35.427Z,97052.72
2018-12-24T04:50:05.660Z,97064.34
2018-12-24T04:52:36.122Z,97062.97
2018-12-24T04:55:06.310Z,97079.23
2018-12-24T04:57:36.647Z,97087.55
2018-12-24T05:02:48.832Z,97097.86
2018-12-24T05:05:18.942Z,97114.01
2018-12-24T05:07:49.071Z,97123.05
2018-12-24T05:10:19.236Z,97119.94
2018-12-24T05:12:49.379Z,97136.42
2018-12-24T05:15:19.549Z,97139.07
2018-12-24T05:17:49.725Z,97143.25
2018-12-24T05:20:19.987Z,97156.70
2018-12-24T05:22:50.058Z,97168.59
2018-12-24T05:25:20.447Z,97168.70
2018-12-24T05:27:50.616Z,97180.06
2018-12-24T05:30:20.765Z,97183.81
2018-12-24T05:32:50.857Z,97194.86
2018-12-24T05:35:21.256Z,97205.95
2018-12-24T05:37:51.922Z,97211.77
2018-12-24T05:40:22.086Z,97220.35
2018-12-24T05:42:52.219Z,97225.75
2018-12-24T05:45:22.381Z,97237.47
2018-12-24T05:47:52.491Z,97246.59
2018-12-24T05:50:22.600Z,97257.94
2018-12-24T05:52:53.018Z,97263.69
2018-12-24T05:55:23.146Z,97278.43
2018-12-24T05:57:53.307Z,97284.08
2018-12-24T06:00:23.652Z,97293.36
2018-12-24T06:02:53.783Z,97304.34
2018-12-24T06:05:23.872Z,97305.04
2018-12-24T06:07:53.961Z,97308.48
2018-12-24T06:10:24.083Z,97325.16
2018-12-24T06:12:54.198Z,97329.05
2018-12-24T06:15:24.324Z,97340.56
2018-12-24T06:17:54.431Z,97349.42
2018-12-24T06:20:24.624Z,97360.84
2018-12-24T06:22:54.760Z,97378.19
2018-12-24T06:25:25.409Z,97390.90
2018-12-24T06:27:55.653Z,97400.39
2018-12-24T06:30:26.036Z,97407.11
2018-12-24T06:32:56.164Z,97416.05
2018-12-24T06:35:26.570Z,97429.31
2018-12-24T06:37:56.799Z,97434.25
2018-12-24T06:40:27.100Z,97444.33
2018-12-24T06:42:58.334Z,97453.59
2018-12-24T06:45:28.433Z,97462.52
2018-12-24T06:47:58.607Z,97460.55
2018-12-24T06:50:28.726Z,97471.11
2018-12-24T06:52:58.900Z,97480.72
2018-12-24T06:55:29.009Z,97487.05
2018-12-24T06:57:59.144Z,97489.26
2018-12-24T07:00:29.240Z,97499.32
2018-12-24T07:02:59.422Z,97510.16
2018-12-24T07:05:30.025Z,97520.08
2018-12-24T07:08:00.130Z,97520.92
2018-12-24T07:10:30.281Z,97529.52
2018-12-24T07:13:00.538Z,97543.81
2018-12-24T07:15:30.646Z,97550.94
2018-12-24T07:18:01.018Z,97553.99
2018-12-24T07:20:31.382Z,97561.63
2018-12-24T07:23:01.525Z,97564.47
2018-12-24T07:25:31.663Z,97578.52
2018-12-24T07:28:02.123Z,97578.52
2018-12-24T07:30:32.227Z,97594.30
2018-12-24T07:33:02.353Z,97596.73
2018-12-24T07:35:32.488Z,97610.05
2018-12-24T07:38:03.200Z,97617.91
2018-12-24T07:40:33.354Z,97631.33
2018-12-24T07:43:03.716Z,97639.38
2018-12-24T07:45:33.861Z,97636.45
2018-12-24T07:48:03.985Z,97641.22
2018-12-24T07:50:34.152Z,97649.73
2018-12-24T07:53:04.608Z,97662.97
2018-12-24T07:55:35.321Z,97673.26
2018-12-24T07:58:05.856Z,97672.39
2018-12-24T08:00:36.329Z,97688.81
2018-12-24T08:03:06.556Z,97677.05
2018-12-24T08:05:36.759Z,97684.45
2018-12-24T08:08:08.616Z,97683.16
2018-12-24T08:10:38.731Z,97698.32
2018-12-24T08:13:09.196Z,97708.95
2018-12-24T08:15:40.701Z,97716.20
2018-12-24T08:18:10.859Z,97729.28
2018-12-24T08:20:41.060Z,97734.08
2018-12-24T08:23:11.470Z,97731.61
2018-12-24T08:25:41.583Z,97748.86
2018-12-24T08:28:11.781Z,97750.44
2018-12-24T08:30:42.464Z,97758.81
2018-12-24T08:33:12.865Z,97755.77
2018-12-24T08:35:42.961Z,97761.66
2018-12-24T08:38:13.085Z,97762.94
2018-12-24T08:40:43.190Z,97766.82
2018-12-24T08:43:14.115Z,97774.57
2018-12-24T08:45:44.233Z,97774.05
2018-12-24T08:48:14.728Z,97776.67
2018-12-24T08:50:50.625Z,97791.00
2018-12-24T08:53:20.752Z,97797.96
2018-12-24T08:55:51.451Z,97810.80
2018-12-24T08:58:22.408Z,97806.22
2018-12-24T09:00:52.540Z,97822.61
2018-12-24T09:03:22.681Z,97822.98
2018-12-24T09:05:52.783Z,97823.36
2018-12-24T09:08:23.217Z,97832.89
2018-12-24T09:10:59.333Z,97838.66
2018-12-24T09:13:29.475Z,97843.62
2018-12-24T09:15:59.825Z,97846.20
2018-12-24T09:18:30.373Z,97854.53
2018-12-24T09:21:00.458Z,97856.97
2018-12-24T09:23:30.648Z,97854.69
2018-12-24T09:26:01.051Z,97861.67
2018-12-24T09:28:31.312Z,97863.40
2018-12-24T09:31:01.410Z,97870.43
2018-12-24T09:33:31.540Z,97875.41
2018-12-24T09:36:01.668Z,97886.23
2018-12-24T09:38:31.803Z,97893.05
2018-12-24T09:41:02.178Z,97907.93
2018-12-24T09:43:32.290Z,97909.58
2018-12-24T09:46:02.398Z,97919.02
2018-12-24T09:48:33.020Z,97911.83
2018-12-24T09:51:03.496Z,97921.05
2018-12-24T09:53:33.609Z,97926.67
2018-12-24T09:56:03.754Z,97922.61
2018-12-24T09:58:33.890Z,97934.19
2018-12-24T10:01:04.083Z,97940.45
2018-12-24T10:03:39.488Z,97945.05
2018-12-24T10:06:16.644Z,97948.72
2018-12-24T10:08:47.481Z,97950.94
2018-12-24T10:11:17.674Z,97959.33
2018-12-24T10:13:47.903Z,97951.78
2018-12-24T10:16:18.275Z,97962.96
2018-12-24T10:18:48.931Z,97965.37
2018-12-24T10:21:19.413Z,97960.83
2018-12-24T10:23:50.262Z,97971.28
2018-12-24T10:26:21.353Z,97970.06
2018-12-24T10:28:51.818Z,97972.19
2018-12-24T10:31:21.963Z,97977.92
2018-12-24T10:33:52.095Z,97977.81
2018-12-24T10:36:22.243Z,97993.41
2018-12-24T10:38:52.378Z,97993.62
2018-12-24T10:41:25.480Z,97998.95
2018-12-24T10:43:55.719Z,97999.05
2018-12-24T10:46:25.843Z,98007.89
2018-12-24T10:48:56.252Z,98008.38
2018-12-24T10:51:26.698Z,98008.52
2018-12-24T10:53:57.172Z,98006.03
2018-12-24T10:56:27.383Z,98007.21
2018-12-24T10:58:57.522Z,98008.92
2018-12-24T11:01:27.972Z,98005.11
2018-12-24T11:03:58.092Z,98021.05
2018-12-24T11:06:29.445Z,98013.91
2018-12-24T11:08:59.646Z,98021.30
2018-12-24T11:11:31.249Z,98025.00
2018-12-24T11:14:01.742Z,98016.43
2018-12-24T11:16:31.861Z,98015.78
2018-12-24T11:19:01.991Z,98012.72
2018-12-24T11:21:32.097Z,98021.66
2018-12-24T11:24:02.741Z,98017.16
2018-12-24T11:26:33.135Z,98023.41
2018-12-24T11:29:04.217Z,98018.45
2018-12-24T11:31:34.352Z,98029.06
2018-12-24T11:34:05.550Z,98030.25
2018-12-24T11:36:35.659Z,98037.13
2018-12-24T11:39:06.915Z,98030.36
2018-12-24T11:41:37.471Z,98043.83
2018-12-24T11:44:07.679Z,98054.73
2018-12-24T11:46:38.194Z,98057.33
2018-12-24T11:49:08.369Z,98063.13
2018-12-24T11:51:38.644Z,98077.16
2018-12-24T11:54:08.737Z,98078.79
2018-12-24T11:56:38.818Z,98077.45
2018-12-24T11:59:09.164Z,98080.97
2018-12-24T12:01:39.293Z,98076.66
2018-12-24T12:04:09.744Z,98082.57
2018-12-24T12:06:39.874Z,98085.14
2018-12-24T12:09:10.031Z,98084.41
2018-12-24T12:11:40.210Z,98088.53
2018-12-24T12:14:10.633Z,98094.84
2018-12-24T12:16:40.717Z,98092.48
2018-12-24T12:19:10.816Z,98086.05
2018-12-24T12:21:41.144Z,98098.29
2018-12-24T12:24:11.252Z,98099.69
2018-12-24T12:26:41.390Z,98103.52
2018-12-24T12:29:11.461Z,98110.39
2018-12-24T12:31:41.973Z,98130.20
2018-12-24T12:34:17.329Z,98122.25
2018-12-24T12:36:47.433Z,98136.57
2018-12-24T12:39:18.574Z,98141.41
2018-12-24T12:41:49.715Z,98154.72
2018-12-24T12:44:20.481Z,98159.14
2018-12-24T12:46:50.868Z,98161.09
2018-12-24T12:49:20.994Z,98169.77
2018-12-24T12:51:51.363Z,98175.19
2018-12-24T12:54:21.495Z,98174.86
2018-12-24T12:56:51.922Z,98179.22
2018-12-24T12:59:22.040Z,98181.22
2018-12-24T13:01:52.488Z,98190.30
2018-12-24T13:04:22.874Z,98195.75
2018-12-24T13:06:53.260Z,98196.94
2018-12-24T13:09:23.389Z,98196.19
2018-12-24T13:11:53.551Z,98203.99
2018-12-24T13:14:23.696Z,98209.28
2018-12-24T13:16:54.188Z,98207.67
2018-12-24T13:19:25.253Z,98212.19
2018-12-24T13:21:55.333Z,98217.45
2018-12-24T13:24:25.701Z,98217.85
2018-12-24T13:26:57.685Z,98221.38
2018-12-24T13:29:28.011Z,98224.89
2018-12-24T13:31:58.391Z,98227.70
2018-12-24T13:34:28.523Z,98235.76
2018-12-24T13:36:58.675Z,98234.62
2018-12-24T13:39:29.316Z,98239.84
2018-12-24T13:42:00.405Z,98242.31
2018-12-24T13:44:30.579Z,98240.09
2018-12-24T13:47:00.686Z,98243.50
2018-12-24T13:49:30.781Z,98241.82
2018-12-24T13:52:00.943Z,98246.99
2018-12-24T13:54:31.027Z,98254.95
2018-12-24T13:57:01.203Z,98260.26
2018-12-24T13:59:31.429Z,98262.38
2018-12-24T14:02:01.688Z,98267.33
2018-12-24T14:04:31.760Z,98273.81
2018-12-24T14:07:02.249Z,98285.25
2018-12-24T14:09:32.495Z,98291.02
2018-12-24T14:12:03.164Z,98297.48
2018-12-24T14:14:33.558Z,98305.48
2018-12-24T14:17:03.675Z,98318.63
2018-12-24T14:19:34.436Z,98327.80
2018-12-24T14:22:04.835Z,98327.30
2018-12-24T14:24:34.983Z,98323.09
2018-12-24T14:27:05.096Z,98330.52
2018-12-24T14:29:37.385Z,98334.97
2018-12-24T14:32:07.819Z,98339.09
2018-12-24T14:34:38.009Z,98345.61
2018-12-24T14:37:08.190Z,98347.14
2018-12-24T14:39:38.326Z,98345.87
2018-12-24T14:42:08.558Z,98353.08
2018-12-24T14:44:39.190Z,98358.69
2018-12-24T14:47:09.317Z,98363.30
2018-12-24T14:49:39.483Z,98365.81
2018-12-24T14:52:09.634Z,98366.96
2018-12-24T14:54:39.760Z,98378.64
2018-12-24T14:57:10.182Z,98373.09
2018-12-24T14:59:40.898Z,98389.03
2018-12-24T15:02:11.500Z,98402.76
2018-12-24T15:04:41.898Z,98404.21
2018-12-24T15:07:12.502Z,98403.98
2018-12-24T15:09:42.610Z,98416.25
2018-12-24T15:12:13.049Z,98413.78
2018-12-24T15:14:43.188Z,98419.30
2018-12-24T15:17:13.311Z,98415.67
2018-12-24T15:19:43.406Z,98419.98
2018-12-24T15:22:13.544Z,98419.61
2018-12-24T15:24:43.698Z,98432.36
2018-12-24T15:27:14.196Z,98431.67
2018-12-24T15:29:45.634Z,98434.93
2018-12-24T15:32:15.786Z,98439.36
2018-12-24T15:34:45.895Z,98433.05
2018-12-24T15:37:16.274Z,98430.98
2018-12-24T15:39:46.492Z,98423.55
2018-12-24T15:42:16.737Z,98438.32
2018-12-24T15:44:46.936Z,98435.70
2018-12-24T15:47:17.300Z,98438.84
2018-12-24T15:49:47.417Z,98440.95
2018-12-24T15:52:17.815Z,98454.03
2018-12-24T15:54:47.978Z,98458.28
2018-12-24T15:57:18.441Z,98464.02
2018-12-24T15:59:48.562Z,98458.45
2018-12-24T16:02:18.736Z,98469.51
2018-12-24T16:04:49.859Z,98463.84
2018-12-24T16:07:20.025Z,98468.56
2018-12-24T16:09:50.245Z,98468.13
2018-12-24T16:12:20.644Z,98477.37
2018-12-24T16:14:50.767Z,98476.94
2018-12-24T16:17:20.935Z,98479.53
2018-12-24T16:19:51.024Z,98476.84
2018-12-24T16:22:21.444Z,98482.22
2018-12-24T16:24:52.767Z,98479.30
2018-12-24T16:27:23.167Z,98482.78
2018-12-24T16:29:53.278Z,98492.70
2018-12-24T16:32:23.477Z,98495.98
2018-12-24T16:34:56.345Z,98493.16
2018-12-24T16:37:26.545Z,98500.25
2018-12-24T16:39:57.263Z,98512.70
2018-12-24T16:42:28.553Z,98514.30
2018-12-24T16:45:03.346Z,98517.45
2018-12-24T16:47:33.814Z,98526.70
2018-12-24T16:50:04.567Z,98526.59
2018-12-24T16:52:34.674Z,98533.45
2018-12-24T16:55:04.818Z,98527.92
2018-12-24T16:57:35.200Z,98539.73
2018-12-24T17:00:06.343Z,98534.88
2018-12-24T17:02:36.801Z,98542.61
2018-12-24T17:05:06.975Z,98551.83
2018-12-24T17:07:37.625Z,98552.05
2018-12-24T17:10:09.797Z,98543.81
2018-12-24T17:12:40.005Z,98548.28
2018-12-24T17:15:10.668Z,98546.53
2018-12-24T17:17:41.965Z,98543.61
2018-12-24T17:20:12.288Z,98535.25
2018-12-24T17:22:42.723Z,98536.35
2018-12-24T17:25:14.111Z,98541.97
2018-12-24T17:27:45.240Z,98546.77
2018-12-24T17:30:15.571Z,98550.03
2018-12-24T17:32:45.731Z,98546.72
2018-12-24T17:35:17.238Z,98541.91
2018-12-24T17:37:47.713Z,98532.77
2018-12-24T17:40:17.928Z,98529.37
2018-12-24T17:42:48.042Z,98525.48
2018-12-24T17:45:21.130Z,98534.27
2018-12-24T17:47:55.662Z,98533.34
2018-12-24T17:50:26.292Z,98531.19
2018-12-24T17:52:56.440Z,98539.25
2018-12-24T17:55:26.601Z,98545.36
2018-12-24T17:57:57.021Z,98546.23
2018-12-24T18:00:28.108Z,98545.56
2018-12-24T18:02:58.907Z,98553.94
2018-12-24T18:05:29.527Z,98563.33
2018-12-24T18:07:59.938Z,98571.74
2018-12-24T18:10:30.094Z,98572.88
2018-12-24T18:13:00.223Z,98576.76
2018-12-24T18:15:30.350Z,98577.11
2018-12-24T18:18:05.279Z,98580.25
2018-12-24T18:20:35.451Z,98582.80
2018-12-24T18:23:05.604Z,98591.31
2018-12-24T18:25:36.317Z,98586.50
2018-12-24T18:28:07.075Z,98593.33
2018-12-24T18:30:37.212Z,98598.95
2018-12-24T18:33:07.343Z,98600.86
2018-12-24T18:35:38.141Z,98615.14
2018-12-24T18:38:08.342Z,98623.76
2018-12-24T18:40:38.589Z,98631.45
2018-12-24T18:43:08.820Z,98635.13
2018-12-24T18:45:39.026Z,98648.57
2018-12-24T18:48:09.168Z,98643.28
2018-12-24T18:50:39.497Z,98639.61
2018-12-24T18:53:10.400Z,98649.67
2018-12-24T18:55:40.690Z,98641.17
2018-12-24T18:58:10.872Z,98636.87
2018-12-24T19:00:41.088Z,98635.88
2018-12-24T19:03:12.258Z,98630.67
2018-12-24T19:05:42.562Z,98633.60
2018-12-24T19:08:12.960Z,98643.60
2018-12-24T19:10:43.499Z,98645.11
2018-12-24T19:13:13.633Z,98640.78
2018-12-24T19:15:44.079Z,98654.98
2018-12-24T19:18:14.555Z,98661.02
2018-12-24T19:20:44.733Z,98666.78
2018-12-24T19:23:15.351Z,98670.75
2018-12-24T19:25:45.608Z,98669.09
2018-12-24T19:28:15.735Z,98673.13
2018-12-24T19:30:45.973Z,98672.69
2018-12-24T19:33:16.179Z,98662.80
2018-12-24T19:35:46.404Z,98658.66
2018-12-24T19:38:16.928Z,98656.12
2018-12-24T19:40:47.072Z,98658.19
2018-12-24T19:43:17.309Z,98658.37
2018-12-24T19:45:47.442Z,98652.19
2018-12-24T19:48:17.603Z,98654.05
2018-12-24T19:50:48.086Z,98651.92
2018-12-24T19:53:18.189Z,98649.08
2018-12-24T19:55:48.583Z,98633.06
2018-12-24T19:58:19.093Z,98630.97
2018-12-24T20:00:51.254Z,98619.07
2018-12-24T20:03:21.436Z,98608.56
2018-12-24T20:05:51.575Z,98596.81
2018-12-24T20:08:21.898Z,98601.67
2018-12-24T20:10:52.336Z,98596.00
2018-12-24T20:13:22.530Z,98592.21
2018-12-24T20:15:52.944Z,98597.96
2018-12-24T20:18:23.044Z,98597.46
2018-12-24T20:20:53.345Z,98588.20
2018-12-24T20:23:23.545Z,98595.85
2018-12-24T20:25:53.716Z,98591.75
2018-12-24T20:28:24.265Z,98596.86
2018-12-24T20:30:54.440Z,98601.96
2018-12-24T20:33:24.547Z,98601.79
2018-12-24T20:35:54.691Z,98589.95
2018-12-24T20:38:25.194Z,98595.55
2018-12-24T20:40:55.350Z,98590.56
2018-12-24T20:43:26.109Z,98606.97
2018-12-24T20:45:56.365Z,98603.75
2018-12-24T20:48:26.716Z,98614.23
2018-12-24T20:50:57.152Z,98609.44
2018-12-24T20:53:27.617Z,98620.05
2018-12-24T20:55:58.054Z,98623.32
2018-12-24T20:58:28.179Z,98631.48
2018-12-24T21:00:58.307Z,98640.34
2018-12-24T21:03:28.490Z,98638.67
2018-12-24T21:05:58.604Z,98647.39
2018-12-24T21:08:28.816Z,98643.31
2018-12-24T21:10:59.073Z,98654.44
2018-12-24T21:13:29.203Z,98654.33
2018-12-24T21:15:59.432Z,98658.91
2018-12-24T21:18:29.810Z,98664.27
2018-12-24T21:21:00.257Z,98660.48
2018-12-24T21:23:30.491Z,98670.38
2018-12-24T21:26:00.762Z,98656.41
2018-12-24T21:28:30.922Z,98665.63
2018-12-24T21:31:01.315Z,98662.48
2018-12-24T21:33:31.845Z,98665.70
2018-12-24T21:36:02.246Z,98659.55
2018-12-24T21:38:32.365Z,98658.70
2018-12-24T21:41:02.672Z,98687.33
2018-12-24T21:43:32.872Z,98686.84
2018-12-24T21:46:03.033Z,98699.58
2018-12-24T21:48:33.281Z,98695.12
2018-12-24T21:51:03.385Z,98697.69
2018-12-24T21:53:33.522Z,98705.21
2018-12-24T21:56:04.002Z,98699.63
2018-12-24T21:58:40.097Z,98701.56
2018-12-24T22:01:11.802Z,98712.30
2018-12-24T22:03:41.922Z,98703.07
2018-12-24T22:06:12.614Z,98701.13
2018-12-24T22:08:43.064Z,98706.81
2018-12-24T22:11:13.231Z,98707.39
2018-12-24T22:13:44.085Z,98708.99
2018-12-24T22:16:14.597Z,98703.22
2018-12-24T22:18:44.684Z,98698.06
2018-12-24T22:21:14.811Z,98695.12
2018-12-24T22:23:45.006Z,98699.15
2018-12-24T22:26:15.133Z,98706.51
2018-12-24T22:28:45.282Z,98700.14
2018-12-24T22:31:15.568Z,98710.28
2018-12-24T22:33:46.027Z,98718.82
2018-12-24T22:36:16.720Z,98713.75
2018-12-24T22:38:46.853Z,98720.66
2018-12-24T22:41:16.991Z,98722.67
2018-12-24T22:43:48.199Z,98720.66
2018-12-24T22:46:20.615Z,98720.41
2018-12-24T22:48:51.732Z,98708.68
2018-12-24T22:51:21.880Z,98718.16
2018-12-24T22:53:52.365Z,98709.70
2018-12-24T22:56:22.518Z,98709.08
2018-12-24T22:58:52.953Z,98701.48
2018-12-24T23:01:24.608Z,98705.17
2018-12-24T23:03:55.156Z,98698.06
2018-12-24T23:06:25.306Z,98687.12
2018-12-24T23:08:57.057Z,98691.52
2018-12-24T23:11:27.202Z,98680.41
2018-12-24T23:13:59.029Z,98672.78
2018-12-24T23:16:29.465Z,98675.53
2018-12-24T23:18:59.917Z,98670.61
2018-12-24T23:21:30.361Z,98663.78
2018-12-24T23:24:01.930Z,98659.55
2018-12-24T23:26:32.162Z,98661.83
2018-12-24T23:29:02.333Z,98655.58
2018-12-24T23:31:32.782Z,98654.08
2018-12-24T23:34:03.108Z,98655.59
2018-12-24T23:36:34.216Z,98655.80
2018-12-24T23:39:05.316Z,98652.22
2018-12-24T23:41:36.824Z,98643.00
2018-12-24T23:44:07.049Z,98644.36
2018-12-24T23:46:37.192Z,98645.58
2018-12-24T23:49:07.400Z,98634.81
2018-12-24T23:51:37.791Z,98634.20
2018-12-24T23:54:07.947Z,98637.81
2018-12-24T23:56:39.438Z,98650.11
2018-12-24T23:59:09.580Z,98650.11
